Time;durP1;ratioP1;P1;durP2;ratioP2;P2;SDS_P1;SDS_P2;PMS_P1;PMS_P2;Temp;Humidity;BMP_temperature;BMP_pressure;BME280_temperature;BME280_humidity;BME280_pressure;Samples;Min_cycle;Max_cycle;Signal;HPM_P1;HPM_P2
2021/03/30 00:00:49;;;;;;;;;;;;;;;;;;5031193;28;906;-61
2021/03/30 00:03:14;;;;;;;;;;;;;;;;;;5032456;28;832;-59
2021/03/30 00:05:40;;;;;;;;;;;;;;;;;;5029822;28;819;-61
2021/03/30 00:08:06;;;;;;;;;;;;;;;;;;5030401;28;1106;-61
2021/03/30 00:10:35;;;;;;;;;;;;;;;;;;5018789;28;852;-60
2021/03/30 00:13:00;;;;;;;;;;;;;;;;;;5010237;28;1200;-60
2021/03/30 00:15:26;;;;;;;;;;;;;;;;;;5010765;28;684;-61
2021/03/30 00:17:51;;;;;;;;;;;;;;;;;;5011244;28;2006;-61
2021/03/30 00:20:17;;;;;;;;;;;;;;;;;;5011382;28;889;-61
2021/03/30 00:22:42;;;;;;;;;;;;;;;;;;5009944;28;930;-60
2021/03/30 00:25:09;;;;;;;;;;;;;;;;;;5010167;28;843;-61
2021/03/30 00:27:35;;;;;;;;;;;;;;;;;;4992553;28;737;-62
2021/03/30 00:30:00;;;;;;;;;;;;;;;;;;5009859;28;739;-61
2021/03/30 00:32:25;;;;;;;;;;;;;;;;;;5010045;28;875;-60
2021/03/30 00:34:51;;;;;;;;;;;;;;;;;;5010726;28;911;-61
2021/03/30 00:37:16;;;;;;;;;;;;;;;;;;5025874;28;1964;-61
2021/03/30 00:39:42;;;;;;;;;;;;;;;;;;5010027;28;918;-61
2021/03/30 00:42:07;;;;;;;;;;;;;;;;;;5010008;28;824;-60
2021/03/30 00:44:33;;;;;;;;;;;;;;;;;;5009397;28;898;-61
2021/03/30 00:47:00;;;;;;;;;;;;;;;;;;5009807;28;820;-60
2021/03/30 00:49:25;;;;;;;;;;;;;;;;;;5009779;28;812;-62
2021/03/30 00:51:51;;;;;;;;;;;;;;;;;;5010464;28;883;-60
2021/03/30 00:54:17;;;;;;;;;;;;;;;;;;5023917;28;1099;-61
2021/03/30 00:56:43;;;;;;;;;;;;;;;;;;5010060;28;1973;-61
2021/03/30 00:59:08;;;;;;;;;;;;;;;;;;5012391;28;921;-62
2021/03/30 01:01:34;;;;;;;;;;;;;;;;;;5029358;28;879;-61
2021/03/30 01:04:00;;;;;;;;;;;;;;;;;;5030992;28;807;-61
2021/03/30 01:06:25;;;;;;;;;;;;;;;;;;5029009;28;804;-62
2021/03/30 01:09:02;;;;;;;;;;;;;;;;;;5030237;28;847;-63
2021/03/30 01:11:37;;;;;;;;;;;;;;;;;;5029233;28;823;-62
2021/03/30 01:14:23;;;;;;;;;;;;;;;;;;5029068;28;867;-63
2021/03/30 01:16:52;;;;;;;;;;;;;;;;;;5029954;28;1985;-62
2021/03/30 01:19:36;;;;;;;;;;;;;;;;;;5029343;28;851;-62
2021/03/30 01:22:04;;;;;;;;;;;;;;;;;;5028640;28;816;-62
2021/03/30 01:24:37;;;;;;;;;;;;;;;;;;5029228;28;855;-62
2021/03/30 01:27:05;;;;;;;;;;;;;;;;;;5028946;28;933;-60
2021/03/30 01:29:42;;;;;;;;;;;;;;;;;;5029039;28;875;-60
2021/03/30 01:32:12;;;;;;;;;;;;;;;;;;5029190;28;903;-60
2021/03/30 01:34:39;;;;;;;;;;;;;;;;;;5028835;28;835;-60
2021/03/30 01:37:04;;;;;;;;;;;;;;;;;;5028792;28;2222;-61
2021/03/30 01:39:30;;;;;;;;;;;;;;;;;;5029156;28;910;-61
2021/03/30 01:41:56;;;;;;;;;;;;;;;;;;5029069;28;811;-60
2021/03/30 01:44:22;;;;;;;;;;;;;;;;;;5029056;28;938;-61
2021/03/30 01:46:49;;;;;;;;;;;;;;;;;;5029505;28;835;-60
2021/03/30 01:49:15;;;;;;;;;;;;;;;;;;5029051;28;906;-60
2021/03/30 01:51:41;;;;;;;;;;;;;;;;;;5028572;28;906;-60
2021/03/30 01:54:07;;;;;;;;;;;;;;;;;;5028343;28;1202;-60
2021/03/30 01:56:36;;;;;;;;;;;;;;;;;;5028334;28;1968;-60
2021/03/30 01:59:02;;;;;;;;;;;;;;;;;;5029064;28;872;-61
2021/03/30 02:01:28;;;;;;;;;;;;;;;;;;5028840;28;855;-61
2021/03/30 02:03:54;;;;;;;;;;;;;;;;;;5028449;28;875;-60
2021/03/30 02:06:20;;;;;;;;;;;;;;;;;;5032337;28;736;-63
2021/03/30 02:08:46;;;;;;;;;;;;;;;;;;5028874;28;1005;-60
2021/03/30 02:11:21;;;;;;;;;;;;;;;;;;5028497;28;882;-60
2021/03/30 02:13:54;;;;;;;;;;;;;;;;;;5028979;28;895;-60
2021/03/30 02:16:21;;;;;;;;;;;;;;;;;;5028863;28;1968;-60
2021/03/30 02:18:50;;;;;;;;;;;;;;;;;;5028882;28;851;-60
2021/03/30 02:21:33;;;;;;;;;;;;;;;;;;5028620;28;848;-60
2021/03/30 02:24:01;;;;;;;;;;;;;;;;;;5027913;28;902;-61
2021/03/30 02:26:28;;;;;;;;;;;;;;;;;;5027594;28;847;-61
2021/03/30 02:28:57;;;;;;;;;;;;;;;;;;5028175;28;906;-60
2021/03/30 02:31:28;;;;;;;;;;;;;;;;;;5010862;28;943;-60
2021/03/30 02:33:54;;;;;;;;;;;;;;;;;;5027935;28;851;-61
2021/03/30 02:36:21;;;;;;;;;;;;;;;;;;5028570;28;2007;-60
2021/03/30 02:38:47;;;;;;;;;;;;;;;;;;5028919;28;1089;-61
2021/03/30 02:41:14;;;;;;;;;;;;;;;;;;5027819;28;931;-60
2021/03/30 02:43:40;;;;;;;;;;;;;;;;;;5027275;28;903;-60
2021/03/30 02:46:07;;;;;;;;;;;;;;;;;;5027402;28;868;-61
2021/03/30 02:48:35;;;;;;;;;;;;;;;;;;5027696;28;835;-60
2021/03/30 02:51:03;;;;;;;;;;;;;;;;;;5027476;28;714;-60
2021/03/30 02:53:28;;;;;;;;;;;;;;;;;;5020464;28;1146;-60
2021/03/30 02:55:54;;;;;;;;;;;;;;;;;;5008289;28;1886;-60
2021/03/30 02:58:20;;;;;;;;;;;;;;;;;;5008569;28;867;-61
2021/03/30 03:00:46;;;;;;;;;;;;;;;;;;5022933;28;840;-61
2021/03/30 03:03:12;;;;;;;;;;;;;;;;;;5027328;28;887;-61
2021/03/30 03:05:38;;;;;;;;;;;;;;;;;;5028998;28;832;-61
2021/03/30 03:08:07;;;;;;;;;;;;;;;;;;5027486;28;844;-61
2021/03/30 03:10:36;;;;;;;;;;;;;;;;;;5027630;28;883;-61
2021/03/30 03:13:03;;;;;;;;;;;;;;;;;;5027484;28;840;-63
2021/03/30 03:15:30;;;;;;;;;;;;;;;;;;5027264;28;935;-60
2021/03/30 03:17:56;;;;;;;;;;;;;;;;;;5026700;28;1993;-60
2021/03/30 03:20:24;;;;;;;;;;;;;;;;;;5027689;28;875;-61
2021/03/30 03:22:49;;;;;;;;;;;;;;;;;;5027958;28;985;-63
2021/03/30 03:25:15;;;;;;;;;;;;;;;;;;5027273;28;906;-60
2021/03/30 03:27:40;;;;;;;;;;;;;;;;;;5027310;28;827;-60
2021/03/30 03:30:07;;;;;;;;;;;;;;;;;;5027571;28;910;-62
2021/03/30 03:32:33;;;;;;;;;;;;;;;;;;5027107;28;890;-61
2021/03/30 03:34:59;;;;;;;;;;;;;;;;;;5027229;28;808;-61
2021/03/30 03:37:24;;;;;;;;;;;;;;;;;;5026937;28;1975;-62
2021/03/30 03:39:50;;;;;;;;;;;;;;;;;;5009926;28;812;-62
2021/03/30 03:42:15;;;;;;;;;;;;;;;;;;5027120;28;863;-63
2021/03/30 03:44:40;;;;;;;;;;;;;;;;;;5027465;28;828;-62
2021/03/30 03:47:06;;;;;;;;;;;;;;;;;;5031095;28;1092;-63
2021/03/30 03:49:32;;;;;;;;;;;;;;;;;;5027023;28;1166;-62
2021/03/30 03:52:17;;;;;;;;;;;;;;;;;;5026632;28;871;-61
2021/03/30 03:54:44;;;;;;;;;;;;;;;;;;5026767;28;1318;-61
2021/03/30 03:57:13;;;;;;;;;;;;;;;;;;5026397;28;1909;-61
2021/03/30 03:59:40;;;;;;;;;;;;;;;;;;5026031;28;820;-62
2021/03/30 04:02:09;;;;;;;;;;;;;;;;;;5026944;28;855;-63
2021/03/30 04:04:48;;;;;;;;;;;;;;;;;;5026598;28;847;-63
2021/03/30 04:07:19;;;;;;;;;;;;;;;;;;5028912;28;862;-63
2021/03/30 04:09:47;;;;;;;;;;;;;;;;;;5026644;28;832;-62
2021/03/30 04:12:13;;;;;;;;;;;;;;;;;;5026852;28;799;-62
2021/03/30 04:14:39;;;;;;;;;;;;;;;;;;5026689;28;859;-63
2021/03/30 04:17:05;;;;;;;;;;;;;;;;;;5026439;28;1972;-62
2021/03/30 04:19:30;;;;;;;;;;;;;;;;;;5029734;28;863;-63
2021/03/30 04:21:55;;;;;;;;;;;;;;;;;;5029748;28;994;-61
2021/03/30 04:24:21;;;;;;;;;;;;;;;;;;5030803;28;808;-61
2021/03/30 04:26:46;;;;;;;;;;;;;;;;;;5030300;28;910;-62
2021/03/30 04:29:11;;;;;;;;;;;;;;;;;;5029966;28;903;-62
2021/03/30 04:31:37;;;;;;;;;;;;;;;;;;5029928;28;843;-62
2021/03/30 04:34:03;;;;;;;;;;;;;;;;;;5029728;28;847;-62
2021/03/30 04:36:28;;;;;;;;;;;;;;;;;;5029982;28;1922;-62
2021/03/30 04:38:53;;;;;;;;;;;;;;;;;;5029651;28;887;-62
2021/03/30 04:41:19;;;;;;;;;;;;;;;;;;5030426;28;807;-62
2021/03/30 04:43:44;;;;;;;;;;;;;;;;;;5012338;28;925;-63
2021/03/30 04:46:10;;;;;;;;;;;;;;;;;;5029415;28;799;-62
2021/03/30 04:48:35;;;;;;;;;;;;;;;;;;5029499;28;808;-62
2021/03/30 04:51:01;;;;;;;;;;;;;;;;;;5029768;28;831;-62
2021/03/30 04:53:27;;;;;;;;;;;;;;;;;;5022989;28;1150;-62
2021/03/30 04:55:52;;;;;;;;;;;;;;;;;;5009677;28;1894;-61
2021/03/30 04:58:18;;;;;;;;;;;;;;;;;;5013931;28;1064;-61
2021/03/30 05:00:43;;;;;;;;;;;;;;;;;;5040002;28;1160;-60
2021/03/30 05:03:08;;;;;;;;;;;;;;;;;;5048708;28;1211;-60
2021/03/30 05:05:34;;;;;;;;;;;;;;;;;;5048784;28;828;-60
2021/03/30 05:07:59;;;;;;;;;;;;;;;;;;5051315;28;816;-60
2021/03/30 05:10:26;;;;;;;;;;;;;;;;;;5048517;28;799;-60
2021/03/30 05:12:52;;;;;;;;;;;;;;;;;;5049520;28;894;-61
2021/03/30 05:15:17;;;;;;;;;;;;;;;;;;5049405;28;879;-60
2021/03/30 05:17:42;;;;;;;;;;;;;;;;;;5048914;28;1901;-61
2021/03/30 05:20:08;;;;;;;;;;;;;;;;;;5048545;28;859;-60
2021/03/30 05:22:33;;;;;;;;;;;;;;;;;;5048320;28;823;-61
2021/03/30 05:25:01;;;;;;;;;;;;;;;;;;5048457;28;902;-61
2021/03/30 05:27:26;;;;;;;;;;;;;;;;;;5038752;28;1552;-60
2021/03/30 05:29:52;;;;;;;;;;;;;;;;;;5008291;28;847;-60
2021/03/30 05:32:18;;;;;;;;;;;;;;;;;;5009149;28;831;-60
2021/03/30 05:34:43;;;;;;;;;;;;;;;;;;5008693;28;836;-60
2021/03/30 05:37:09;;;;;;;;;;;;;;;;;;5008581;28;1894;-60
2021/03/30 05:39:35;;;;;;;;;;;;;;;;;;5021766;28;1011;-60
2021/03/30 05:42:00;;;;;;;;;;;;;;;;;;5028953;28;807;-61
2021/03/30 05:44:27;;;;;;;;;;;;;;;;;;5027602;28;868;-60
2021/03/30 05:49:39;;;;;;;;;;;;;;;;;;5030020;28;1092;-60
2021/03/30 05:52:12;;;;;;;;;;;;;;;;;;5028450;28;883;-60
2021/03/30 05:54:38;;;;;;;;;;;;;;;;;;5028254;28;1115;-60
2021/03/30 05:57:05;;;;;;;;;;;;;;;;;;5028093;28;1961;-60
2021/03/30 05:59:32;;;;;;;;;;;;;;;;;;5028065;28;871;-61
2021/03/30 06:01:58;;;;;;;;;;;;;;;;;;5027664;28;895;-61
2021/03/30 06:04:23;;;;;;;;;;;;;;;;;;5027336;28;981;-61
2021/03/30 06:06:49;;;;;;;;;;;;;;;;;;5028852;28;844;-60
2021/03/30 06:09:17;;;;;;;;;;;;;;;;;;5027587;28;807;-61
2021/03/30 06:11:42;;;;;;;;;;;;;;;;;;5027620;28;843;-60
2021/03/30 06:14:07;;;;;;;;;;;;;;;;;;5027457;28;851;-60
2021/03/30 06:16:34;;;;;;;;;;;;;;;;;;5028325;28;1977;-61
2021/03/30 06:19:01;;;;;;;;;;;;;;;;;;5006883;28;1231;-61
2021/03/30 06:21:26;;;;;;;;;;;;;;;;;;5026444;28;1257;-60
2021/03/30 06:23:52;;;;;;;;;;;;;;;;;;5028048;28;1155;-60
2021/03/30 06:26:17;;;;;;;;;;;;;;;;;;5009589;28;1095;-61
2021/03/30 06:28:43;;;;;;;;;;;;;;;;;;5008925;28;1270;-62
2021/03/30 06:31:10;;;;;;;;;;;;;;;;;;5019939;28;1171;-61
2021/03/30 06:33:44;;;;;;;;;;;;;;;;;;5025395;28;1234;-61
2021/03/30 06:36:26;;;;;;;;;;;;;;;;;;5007707;28;1992;-61
2021/03/30 06:38:56;;;;;;;;;;;;;;;;;;5008481;28;825;-62
2021/03/30 06:41:27;;;;;;;;;;;;;;;;;;5013004;28;1160;-62
2021/03/30 06:46:43;;;;;;;;;;;;;;;;;;5006636;28;673;-61
2021/03/30 06:49:14;;;;;;;;;;;;;;;;;;5008026;28;859;-62
2021/03/30 06:51:40;;;;;;;;;;;;;;;;;;5007654;28;903;-63
2021/03/30 06:54:09;;;;;;;;;;;;;;;;;;5019317;28;1080;-62
2021/03/30 06:56:44;;;;;;;;;;;;;;;;;;5027170;28;1893;-62
2021/03/30 06:59:09;;;;;;;;;;;;;;;;;;5009105;28;915;-62
2021/03/30 07:01:35;;;;;;;;;;;;;;;;;;5026653;28;828;-62
2021/03/30 07:04:01;;;;;;;;;;;;;;;;;;5027263;28;951;-62
2021/03/30 07:06:26;;;;;;;;;;;;;;;;;;5027470;28;816;-63
2021/03/30 07:08:52;;;;;;;;;;;;;;;;;;5027427;28;863;-60
2021/03/30 07:11:17;;;;;;;;;;;;;;;;;;5027426;28;831;-62
2021/03/30 07:13:43;;;;;;;;;;;;;;;;;;5019054;28;1695;-62
2021/03/30 07:16:14;;;;;;;;;;;;;;;;;;5019671;28;1966;-63
2021/03/30 07:18:50;;;;;;;;;;;;;;;;;;5019376;28;2306;-60
2021/03/30 07:21:21;;;;;;;;;;;;;;;;;;5007708;28;1544;-61
2021/03/30 07:23:53;;;;;;;;;;;;;;;;;;5021946;28;1260;-60
2021/03/30 07:26:21;;;;;;;;;;;;;;;;;;5015161;28;1176;-60
2021/03/30 07:28:52;;;;;;;;;;;;;;;;;;5015782;28;1219;-60
2021/03/30 07:31:27;;;;;;;;;;;;;;;;;;5017532;28;1223;-60
2021/03/30 07:33:53;;;;;;;;;;;;;;;;;;5017370;28;1016;-61
2021/03/30 07:36:20;;;;;;;;;;;;;;;;;;5017619;28;1898;-62
2021/03/30 07:38:47;;;;;;;;;;;;;;;;;;5009869;28;1156;-60
2021/03/30 07:41:13;;;;;;;;;;;;;;;;;;5030551;28;2414;-60
2021/03/30 07:43:39;;;;;;;;;;;;;;;;;;5006469;28;816;-61
2021/03/30 07:46:04;;;;;;;;;;;;;;;;;;5007442;28;761;-60
2021/03/30 07:48:32;;;;;;;;;;;;;;;;;;5008818;28;1104;-61
2021/03/30 07:51:02;;;;;;;;;;;;;;;;;;5020543;28;1207;-61
2021/03/30 07:53:41;;;;;;;;;;;;;;;;;;5029038;28;1023;-60
2021/03/30 07:56:07;;;;;;;;;;;;;;;;;;5028587;28;1953;-60
2021/03/30 07:58:52;;;;;;;;;;;;;;;;;;5029553;28;812;-60
2021/03/30 08:01:18;;;;;;;;;;;;;;;;;;5030847;28;879;-60
2021/03/30 08:03:44;;;;;;;;;;;;;;;;;;5030219;28;831;-60
2021/03/30 08:06:09;;;;;;;;;;;;;;;;;;5030372;28;887;-60
2021/03/30 08:08:55;;;;;;;;;;;;;;;;;;5030099;28;882;-60
2021/03/30 08:11:39;;;;;;;;;;;;;;;;;;5030017;28;1253;-61
2021/03/30 08:14:08;;;;;;;;;;;;;;;;;;5030153;28;902;-60
2021/03/30 08:16:35;;;;;;;;;;;;;;;;;;5030103;28;1988;-61
2021/03/30 08:19:03;;;;;;;;;;;;;;;;;;5029797;28;1362;-60
2021/03/30 08:21:48;;;;;;;;;;;;;;;;;;5030230;28;851;-60
2021/03/30 08:24:14;;;;;;;;;;;;;;;;;;5014881;28;1100;-60
2021/03/30 08:26:40;;;;;;;;;;;;;;;;;;5009907;28;926;-60
2021/03/30 08:29:14;;;;;;;;;;;;;;;;;;5010035;28;828;-60
2021/03/30 08:31:39;;;;;;;;;;;;;;;;;;5009495;28;929;-60
2021/03/30 08:34:14;;;;;;;;;;;;;;;;;;5009591;28;771;-60
2021/03/30 08:36:45;;;;;;;;;;;;;;;;;;5009999;28;2285;-61
2021/03/30 08:39:12;;;;;;;;;;;;;;;;;;5009663;28;851;-60
2021/03/30 08:41:43;;;;;;;;;;;;;;;;;;5009746;28;852;-60
2021/03/30 08:44:10;;;;;;;;;;;;;;;;;;5010169;28;863;-60
2021/03/30 08:46:36;;;;;;;;;;;;;;;;;;5009965;28;907;-61
2021/03/30 08:49:12;;;;;;;;;;;;;;;;;;5009841;28;883;-62
2021/03/30 08:51:38;;;;;;;;;;;;;;;;;;5009803;28;851;-62
2021/03/30 08:54:09;;;;;;;;;;;;;;;;;;5021577;28;1088;-60
2021/03/30 08:56:36;;;;;;;;;;;;;;;;;;5029485;28;1898;-61
2021/03/30 08:59:02;;;;;;;;;;;;;;;;;;5029189;28;1033;-61
2021/03/30 09:01:28;;;;;;;;;;;;;;;;;;5029766;28;939;-60
2021/03/30 09:03:53;;;;;;;;;;;;;;;;;;5028826;28;883;-61
2021/03/30 09:06:29;;;;;;;;;;;;;;;;;;5030351;28;935;-61
2021/03/30 09:08:55;;;;;;;;;;;;;;;;;;5029434;28;851;-60
2021/03/30 09:11:22;;;;;;;;;;;;;;;;;;5030756;28;815;-60
2021/03/30 09:13:57;;;;;;;;;;;;;;;;;;5030077;28;823;-60
2021/03/30 09:16:23;;;;;;;;;;;;;;;;;;5029148;28;1922;-60
2021/03/30 09:18:48;;;;;;;;;;;;;;;;;;5029931;28;892;-61
2021/03/30 09:21:18;;;;;;;;;;;;;;;;;;5028689;28;898;-61
2021/03/30 09:23:43;;;;;;;;;;;;;;;;;;5028583;28;835;-61
2021/03/30 09:26:10;;;;;;;;;;;;;;;;;;5028730;28;843;-61
2021/03/30 09:28:35;;;;;;;;;;;;;;;;;;5029093;28;839;-60
2021/03/30 09:31:01;;;;;;;;;;;;;;;;;;5029111;28;931;-62
2021/03/30 09:33:26;;;;;;;;;;;;;;;;;;5025210;28;1154;-62
2021/03/30 09:35:52;;;;;;;;;;;;;;;;;;5000650;28;1894;-60
2021/03/30 09:38:19;;;;;;;;;;;;;;;;;;5002770;28;1376;-60
2021/03/30 09:40:45;;;;;;;;;;;;;;;;;;5012208;28;1231;-59
2021/03/30 09:43:11;;;;;;;;;;;;;;;;;;5014718;28;1769;-60
2021/03/30 09:45:38;;;;;;;;;;;;;;;;;;5026182;28;1160;-61
2021/03/30 09:48:05;;;;;;;;;;;;;;;;;;5013512;28;1158;-60
2021/03/30 09:50:30;;;;;;;;;;;;;;;;;;5017184;28;1251;-61
2021/03/30 09:53:07;;;;;;;;;;;;;;;;;;5016194;28;1177;-61
2021/03/30 09:55:39;;;;;;;;;;;;;;;;;;5013856;28;1239;-60
2021/03/30 09:58:12;;;;;;;;;;;;;;;;;;5008137;28;1891;-62
2021/03/30 10:00:38;;;;;;;;;;;;;;;;;;5024242;28;1154;-63
2021/03/30 10:03:05;;;;;;;;;;;;;;;;;;5027814;28;823;-61
2021/03/30 10:05:34;;;;;;;;;;;;;;;;;;5027092;28;950;-63
2021/03/30 10:08:00;;;;;;;;;;;;;;;;;;5028668;28;828;-64
2021/03/30 10:10:39;;;;;;;;;;;;;;;;;;5028195;28;831;-62
2021/03/30 10:13:06;;;;;;;;;;;;;;;;;;5027938;28;875;-63
2021/03/30 10:15:40;;;;;;;;;;;;;;;;;;5026990;28;902;-62
2021/03/30 10:18:06;;;;;;;;;;;;;;;;;;5009121;28;1973;-61
2021/03/30 10:20:35;;;;;;;;;;;;;;;;;;5007666;28;828;-60
2021/03/30 10:23:01;;;;;;;;;;;;;;;;;;5008065;28;1208;-60
2021/03/30 10:25:29;;;;;;;;;;;;;;;;;;5008459;28;859;-60
2021/03/30 10:27:57;;;;;;;;;;;;;;;;;;5018250;28;1184;-60
2021/03/30 10:30:29;;;;;;;;;;;;;;;;;;5016810;28;1196;-61
2021/03/30 10:32:57;;;;;;;;;;;;;;;;;;5018758;28;1132;-60
2021/03/30 10:35:22;;;;;;;;;;;;;;;;;;5011940;28;1115;-60
2021/03/30 10:37:48;;;;;;;;;;;;;;;;;;5015977;28;1967;-60
2021/03/30 10:40:14;;;;;;;;;;;;;;;;;;5006287;28;947;-60
2021/03/30 10:42:40;;;;;;;;;;;;;;;;;;5007188;28;891;-60
2021/03/30 10:45:10;;;;;;;;;;;;;;;;;;5007171;28;935;-61
2021/03/30 10:47:41;;;;;;;;;;;;;;;;;;5012191;28;1255;-60
2021/03/30 10:50:11;;;;;;;;;;;;;;;;;;5012657;28;1189;-60
2021/03/30 10:52:38;;;;;;;;;;;;;;;;;;5005806;28;1160;-60
2021/03/30 10:55:09;;;;;;;;;;;;;;;;;;5005973;28;1146;-62
2021/03/30 10:57:35;;;;;;;;;;;;;;;;;;5005774;28;1911;-59
2021/03/30 11:00:03;;;;;;;;;;;;;;;;;;5031254;28;1089;-61
2021/03/30 11:02:28;;;;;;;;;;;;;;;;;;5045636;28;1148;-61
2021/03/30 11:04:54;;;;;;;;;;;;;;;;;;5046689;28;1155;-60
2021/03/30 11:07:19;;;;;;;;;;;;;;;;;;5047436;28;886;-60
2021/03/30 11:09:45;;;;;;;;;;;;;;;;;;5046277;28;795;-60
2021/03/30 11:12:11;;;;;;;;;;;;;;;;;;5046626;28;843;-60
2021/03/30 11:14:36;;;;;;;;;;;;;;;;;;5046387;28;875;-60
2021/03/30 11:17:02;;;;;;;;;;;;;;;;;;5045460;28;1971;-60
2021/03/30 11:19:29;;;;;;;;;;;;;;;;;;5046055;28;831;-60
2021/03/30 11:21:55;;;;;;;;;;;;;;;;;;5046494;28;874;-60
2021/03/30 11:24:22;;;;;;;;;;;;;;;;;;5015192;28;1620;-60
2021/03/30 11:26:52;;;;;;;;;;;;;;;;;;5041788;28;1447;-60
2021/03/30 11:29:29;;;;;;;;;;;;;;;;;;5032294;28;899;-59
2021/03/30 11:39:34;;;;;;;;;;;;;;;;;;5049867;28;1191;-59
2021/03/30 11:42:00;;;;;;;;;;;;;;;;;;5050285;28;839;-60
2021/03/30 11:44:26;;;;;;;;;;;;;;;;;;5050583;28;874;-60
2021/03/30 11:46:51;;;;;;;;;;;;;;;;;;5051401;28;871;-60
2021/03/30 11:49:17;;;;;;;;;;;;;;;;;;5051375;28;823;-60
2021/03/30 11:51:42;;;;;;;;;;;;;;;;;;5050081;28;839;-60
2021/03/30 11:54:07;;;;;;;;;;;;;;;;;;5030800;28;1127;-60
2021/03/30 11:56:33;;;;;;;;;;;;;;;;;;5049550;28;1914;-60
2021/03/30 11:58:58;;;;;;;;;;;;;;;;;;5049684;28;1143;-61
2021/03/30 12:01:24;;;;;;;;;;;;;;;;;;5045999;28;1278;-60
2021/03/30 12:03:49;;;;;;;;;;;;;;;;;;5049172;28;1219;-63
2021/03/30 12:06:14;;;;;;;;;;;;;;;;;;5043760;28;1210;-63
2021/03/30 12:08:40;;;;;;;;;;;;;;;;;;5013326;28;807;-61
2021/03/30 12:11:05;;;;;;;;;;;;;;;;;;5010775;28;859;-63
2021/03/30 12:13:30;;;;;;;;;;;;;;;;;;5010187;28;804;-63
2021/03/30 12:15:56;;;;;;;;;;;;;;;;;;5010589;28;816;-63
2021/03/30 12:18:22;;;;;;;;;;;;;;;;;;5010910;28;1930;-61
2021/03/30 12:20:47;;;;;;;;;;;;;;;;;;5011293;28;1029;-61
2021/03/30 12:23:13;;;;;;;;;;;;;;;;;;5015611;28;1168;-60
2021/03/30 12:25:38;;;;;;;;;;;;;;;;;;5028834;28;1270;-62
2021/03/30 12:28:04;;;;;;;;;;;;;;;;;;5029674;28;823;-61
2021/03/30 12:30:29;;;;;;;;;;;;;;;;;;5028469;28;922;-62
2021/03/30 12:32:54;;;;;;;;;;;;;;;;;;5028300;28;843;-60
2021/03/30 12:35:20;;;;;;;;;;;;;;;;;;5029801;28;843;-61
2021/03/30 12:37:45;;;;;;;;;;;;;;;;;;5030005;28;1894;-62
2021/03/30 12:40:11;;;;;;;;;;;;;;;;;;5028713;28;835;-61
2021/03/30 12:42:36;;;;;;;;;;;;;;;;;;5029524;28;879;-62
2021/03/30 12:45:02;;;;;;;;;;;;;;;;;;5029619;28;914;-62
2021/03/30 12:47:28;;;;;;;;;;;;;;;;;;5029475;28;734;-62
2021/03/30 12:49:53;;;;;;;;;;;;;;;;;;5029640;28;690;-60
2021/03/30 12:52:18;;;;;;;;;;;;;;;;;;5030741;28;810;-63
2021/03/30 12:54:44;;;;;;;;;;;;;;;;;;5029043;28;1103;-61
2021/03/30 12:57:12;;;;;;;;;;;;;;;;;;5029426;28;1997;-62
2021/03/30 12:59:37;;;;;;;;;;;;;;;;;;5029618;28;852;-60
2021/03/30 13:02:03;;;;;;;;;;;;;;;;;;5030080;28;899;-62
2021/03/30 13:04:28;;;;;;;;;;;;;;;;;;5029299;28;930;-63
2021/03/30 13:06:54;;;;;;;;;;;;;;;;;;5029584;28;898;-63
2021/03/30 13:09:19;;;;;;;;;;;;;;;;;;5030185;28;875;-62
2021/03/30 13:11:44;;;;;;;;;;;;;;;;;;5029510;28;815;-60
2021/03/30 13:14:10;;;;;;;;;;;;;;;;;;5029467;28;816;-60
2021/03/30 13:16:35;;;;;;;;;;;;;;;;;;5029203;28;1969;-59
2021/03/30 13:19:01;;;;;;;;;;;;;;;;;;5029237;28;962;-61
2021/03/30 13:21:26;;;;;;;;;;;;;;;;;;5029004;28;831;-60
2021/03/30 13:23:54;;;;;;;;;;;;;;;;;;5026745;28;1213;-60
2021/03/30 13:26:19;;;;;;;;;;;;;;;;;;5030046;28;843;-60
2021/03/30 13:28:45;;;;;;;;;;;;;;;;;;5028775;28;911;-60
2021/03/30 13:31:10;;;;;;;;;;;;;;;;;;5029012;28;918;-60
2021/03/30 13:33:36;;;;;;;;;;;;;;;;;;5029106;28;855;-60
2021/03/30 13:36:01;;;;;;;;;;;;;;;;;;5029347;28;1980;-62
2021/03/30 13:38:27;;;;;;;;;;;;;;;;;;5028677;28;934;-60
2021/03/30 13:40:53;;;;;;;;;;;;;;;;;;5028561;28;813;-61
2021/03/30 13:43:18;;;;;;;;;;;;;;;;;;5030126;28;807;-60
2021/03/30 13:45:44;;;;;;;;;;;;;;;;;;5028848;28;895;-60
2021/03/30 13:48:09;;;;;;;;;;;;;;;;;;5028521;28;835;-59
2021/03/30 13:50:36;;;;;;;;;;;;;;;;;;5028430;28;863;-60
2021/03/30 13:53:02;;;;;;;;;;;;;;;;;;5025692;28;1147;-62
2021/03/30 13:55:28;;;;;;;;;;;;;;;;;;5008978;28;927;-60
2021/03/30 13:57:53;;;;;;;;;;;;;;;;;;5009001;28;1893;-60
2021/03/30 14:00:20;;;;;;;;;;;;;;;;;;5046150;28;928;-60
2021/03/30 14:02:45;;;;;;;;;;;;;;;;;;5028877;28;1167;-60
2021/03/30 14:05:11;;;;;;;;;;;;;;;;;;5028561;28;819;-61
2021/03/30 14:07:36;;;;;;;;;;;;;;;;;;5028829;28;935;-60
2021/03/30 14:10:02;;;;;;;;;;;;;;;;;;5028803;28;834;-61
2021/03/30 14:12:34;;;;;;;;;;;;;;;;;;5028308;28;836;-59
2021/03/30 14:15:07;;;;;;;;;;;;;;;;;;5028362;28;851;-60
2021/03/30 14:17:39;;;;;;;;;;;;;;;;;;5028143;28;1975;-60
2021/03/30 14:20:06;;;;;;;;;;;;;;;;;;5027624;28;855;-59
2021/03/30 14:22:36;;;;;;;;;;;;;;;;;;5027930;28;840;-59
2021/03/30 14:25:01;;;;;;;;;;;;;;;;;;5028426;28;902;-60
2021/03/30 14:27:27;;;;;;;;;;;;;;;;;;5027792;28;910;-60
2021/03/30 14:29:53;;;;;;;;;;;;;;;;;;5027807;28;919;-60
2021/03/30 14:32:19;;;;;;;;;;;;;;;;;;5028862;28;950;-60
2021/03/30 14:34:47;;;;;;;;;;;;;;;;;;5028127;28;875;-60
2021/03/30 14:37:14;;;;;;;;;;;;;;;;;;5027651;28;1977;-60
2021/03/30 14:39:39;;;;;;;;;;;;;;;;;;5027343;28;949;-60
2021/03/30 14:42:11;;;;;;;;;;;;;;;;;;5027872;28;781;-60
2021/03/30 14:52:28;;;;;;;;;;;;;;;;;;5028326;28;708;-60
2021/03/30 15:04:59;;;;;;;;;;;;;;;;;;5026906;28;769;-59
2021/03/30 15:07:24;;;;;;;;;;;;;;;;;;5027619;28;823;-60
2021/03/30 15:09:50;;;;;;;;;;;;;;;;;;5027610;28;875;-59
2021/03/30 15:12:16;;;;;;;;;;;;;;;;;;5026973;28;870;-59
2021/03/30 15:14:41;;;;;;;;;;;;;;;;;;5026407;28;1478;-60
2021/03/30 15:17:07;;;;;;;;;;;;;;;;;;5005202;28;1902;-59
2021/03/30 15:19:33;;;;;;;;;;;;;;;;;;5011319;28;1286;-59
2021/03/30 15:21:58;;;;;;;;;;;;;;;;;;5006876;28;1167;-60
2021/03/30 15:24:25;;;;;;;;;;;;;;;;;;5012285;28;1334;-63
2021/03/30 15:26:51;;;;;;;;;;;;;;;;;;5009736;28;1373;-62
2021/03/30 15:29:16;;;;;;;;;;;;;;;;;;4988382;28;1283;-62
2021/03/30 15:31:41;;;;;;;;;;;;;;;;;;5006951;28;1211;-60
2021/03/30 15:34:07;;;;;;;;;;;;;;;;;;5006485;28;1234;-60
2021/03/30 15:36:32;;;;;;;;;;;;;;;;;;5010522;28;2001;-61
2021/03/30 15:38:58;;;;;;;;;;;;;;;;;;5004480;28;1072;-60
2021/03/30 15:41:23;;;;;;;;;;;;;;;;;;5012062;28;1111;-62
2021/03/30 15:43:50;;;;;;;;;;;;;;;;;;5007331;28;890;-62
2021/03/30 15:48:45;;;;;;;;;;;;;;;;;;5006942;28;763;-63
2021/03/30 15:51:10;;;;;;;;;;;;;;;;;;5022429;28;1287;-62
2021/03/30 15:53:35;;;;;;;;;;;;;;;;;;5018301;28;1084;-62
2021/03/30 15:56:01;;;;;;;;;;;;;;;;;;5007035;28;819;-61
2021/03/30 15:58:26;;;;;;;;;;;;;;;;;;5006264;28;1956;-62
2021/03/30 16:00:52;;;;;;;;;;;;;;;;;;5023184;28;974;-62
2021/03/30 16:03:18;;;;;;;;;;;;;;;;;;5031956;28;1304;-59
2021/03/30 16:05:44;;;;;;;;;;;;;;;;;;5034289;28;1155;-61
2021/03/30 16:08:10;;;;;;;;;;;;;;;;;;5031242;28;1151;-60
2021/03/30 16:10:35;;;;;;;;;;;;;;;;;;5034248;28;1012;-59
2021/03/30 16:13:00;;;;;;;;;;;;;;;;;;5036376;28;1119;-61
2021/03/30 16:15:26;;;;;;;;;;;;;;;;;;5038837;28;1047;-59
2021/03/30 16:17:51;;;;;;;;;;;;;;;;;;5033657;28;1977;-59
2021/03/30 16:20:16;;;;;;;;;;;;;;;;;;5031378;28;1069;-59
2021/03/30 16:22:43;;;;;;;;;;;;;;;;;;5048713;28;1230;-59
2021/03/30 16:25:09;;;;;;;;;;;;;;;;;;5034518;28;1079;-61
2021/03/30 16:27:34;;;;;;;;;;;;;;;;;;5011884;28;816;-62
2021/03/30 16:30:00;;;;;;;;;;;;;;;;;;5029974;28;963;-60
2021/03/30 16:32:25;;;;;;;;;;;;;;;;;;5038112;28;1234;-60
2021/03/30 16:34:51;;;;;;;;;;;;;;;;;;5049371;28;855;-61
2021/03/30 16:37:17;;;;;;;;;;;;;;;;;;5050223;28;1898;-59
2021/03/30 16:39:43;;;;;;;;;;;;;;;;;;5049972;28;800;-59
2021/03/30 16:42:08;;;;;;;;;;;;;;;;;;5049325;28;834;-59
2021/03/30 16:44:34;;;;;;;;;;;;;;;;;;5049359;28;815;-59
2021/03/30 16:46:59;;;;;;;;;;;;;;;;;;5046575;28;1239;-60
2021/03/30 16:49:25;;;;;;;;;;;;;;;;;;5036860;28;1239;-60
2021/03/30 16:51:50;;;;;;;;;;;;;;;;;;5032001;28;1515;-59
2021/03/30 16:54:16;;;;;;;;;;;;;;;;;;5027701;28;1751;-61
2021/03/30 16:56:41;;;;;;;;;;;;;;;;;;5029435;28;1922;-60
2021/03/30 16:59:12;;;;;;;;;;;;;;;;;;5033789;28;1133;-61
2021/03/30 17:01:38;;;;;;;;;;;;;;;;;;5046006;28;1390;-59
2021/03/30 17:04:03;;;;;;;;;;;;;;;;;;5040607;28;1362;-59
2021/03/30 17:06:29;;;;;;;;;;;;;;;;;;5045709;28;1235;-60
2021/03/30 17:08:54;;;;;;;;;;;;;;;;;;5048832;28;957;-59
2021/03/30 17:11:19;;;;;;;;;;;;;;;;;;5034636;28;1457;-60
2021/03/30 17:13:45;;;;;;;;;;;;;;;;;;5028853;28;899;-60
2021/03/30 17:16:10;;;;;;;;;;;;;;;;;;5029008;28;2015;-59
2021/03/30 17:18:35;;;;;;;;;;;;;;;;;;5032937;28;1398;-59
2021/03/30 17:21:02;;;;;;;;;;;;;;;;;;5048096;28;867;-59
2021/03/30 17:23:28;;;;;;;;;;;;;;;;;;5047654;28;1138;-61
2021/03/30 17:25:55;;;;;;;;;;;;;;;;;;5028396;28;902;-59
2021/03/30 17:28:21;;;;;;;;;;;;;;;;;;5029960;28;887;-59
2021/03/30 17:30:46;;;;;;;;;;;;;;;;;;5031805;28;1243;-59
2021/03/30 17:33:11;;;;;;;;;;;;;;;;;;5027050;28;815;-60
2021/03/30 17:35:37;;;;;;;;;;;;;;;;;;5034412;28;1307;-60
2021/03/30 17:38:04;;;;;;;;;;;;;;;;;;5048392;28;1957;-60
2021/03/30 17:40:30;;;;;;;;;;;;;;;;;;5048477;28;859;-60
2021/03/30 17:42:56;;;;;;;;;;;;;;;;;;5048239;28;839;-59
2021/03/30 17:45:21;;;;;;;;;;;;;;;;;;5049054;28;827;-59